PKWA/KWA METAR and TAF weather

Enter ICAO airport designator
Station Type Date Time Source
PKWA METAR 2022/06/26 08:00 UTC NOAA

PKWA 260800Z AUTO 07017G21KT 10SM SCT029 28/24 A2982 RMK AO2 T02750241


Station Type Date Time Source
PKWA Decoded METAR 2022/06/26 08:00 UTC NOAA

Kwajalein, Bucholz AAF, Kwajalein KMR ATOL Airport, Marshall Islands (PKWA) 08-43N 167-44E 2M
Jun 26, 2022 - 04:00 AM EDT / 2022.06.26 0800 UTC
Wind: from the ENE (070 degrees) at 20 MPH (17 KT) gusting to 24 MPH (21 KT):0
Visibility: 10 mile(s):0
Sky conditions: partly cloudy
Temperature: 81.5 F (27.5 C)
Dew Point: 75.4 F (24.1 C)
Relative Humidity: 81%
Pressure (altimeter): 29.82 in. Hg (1009 hPa)
ob: PKWA 260800Z AUTO 07017G21KT 10SM SCT029 28/24 A2982 RMK AO2 T02750241
cycle: 8

Station Type Date Time Source
PKWA TAF 2022/06/26 06:48 UTC NOAA

TAF PKWA 260544Z 2606/2706 08011KT P6SM VCSH FEW018 SCT025 SCT130

Example: see airport list